Time;durP1;ratioP1;P1;durP2;ratioP2;P2;SDS_P1;SDS_P2;PMS_P1;PMS_P2;Temp;Humidity;BMP_temperature;BMP_pressure;BME280_temperature;BME280_humidity;BME280_pressure;Samples;Min_cycle;Max_cycle;Signal;HPM_P1;HPM_P2
2023/01/20 00:01:45;;;;;;;3.00;1.60;;;;;;;8.11;85.31;102431.22;5005735;28;20077;-76
2023/01/20 00:04:14;;;;;;;4.03;1.48;;;;;;;8.12;85.99;102433.00;5009396;28;20495;-79
2023/01/20 00:06:42;;;;;;;4.82;1.60;;;;;;;8.13;84.71;102429.66;5001893;28;20042;-77
2023/01/20 00:09:15;;;;;;;4.57;2.03;;;;;;;8.13;84.79;102434.81;5007299;28;20517;-77
2023/01/20 00:11:45;;;;;;;3.90;1.77;;;;;;;8.12;84.37;102429.53;5006660;28;20493;-78
2023/01/20 00:14:14;;;;;;;3.33;1.40;;;;;;;8.08;84.18;102428.44;5009512;28;20112;-79
2023/01/20 00:16:43;;;;;;;4.05;1.60;;;;;;;8.05;85.60;102432.50;5006356;28;20050;-79
2023/01/20 00:19:14;;;;;;;4.80;1.73;;;;;;;8.02;85.22;102445.16;5005745;28;20507;-78
2023/01/20 00:21:43;;;;;;;3.50;1.80;;;;;;;7.99;86.31;102440.72;5002177;28;20147;-80
2023/01/20 00:24:11;;;;;;;5.40;1.58;;;;;;;7.98;85.58;102438.94;5005981;28;20133;-78
2023/01/20 00:26:40;;;;;;;2.65;1.52;;;;;;;7.96;84.86;102443.09;5003071;28;20052;-78
2023/01/20 00:29:11;;;;;;;4.30;1.77;;;;;;;7.94;85.44;102442.09;5009456;28;20049;-75
2023/01/20 00:31:39;;;;;;;5.75;1.52;;;;;;;7.92;85.96;102448.81;5008690;28;20042;-72
2023/01/20 00:34:08;;;;;;;3.88;1.70;;;;;;;7.85;86.07;102446.63;5009484;28;20072;-74
2023/01/20 00:36:36;;;;;;;4.20;2.00;;;;;;;7.81;87.07;102447.19;5004334;28;20057;-73
2023/01/20 00:39:05;;;;;;;2.22;1.30;;;;;;;7.74;87.06;102444.22;5011145;28;20132;-73
2023/01/20 00:41:34;;;;;;;3.00;1.50;;;;;;;7.73;87.24;102445.00;4999072;28;20104;-73
2023/01/20 00:44:02;;;;;;;4.05;1.73;;;;;;;7.72;87.25;102435.50;5009525;28;20041;-74
2023/01/20 00:46:33;;;;;;;3.28;1.65;;;;;;;7.71;87.36;102441.44;4996533;28;20046;-73
2023/01/20 00:49:01;;;;;;;4.78;1.52;;;;;;;7.71;88.83;102440.53;5007921;28;20052;-72
2023/01/20 00:51:30;;;;;;;2.92;1.67;;;;;;;7.69;89.03;102442.13;5007690;28;20046;-74
2023/01/20 00:53:58;;;;;;;4.40;1.88;;;;;;;7.67;88.03;102442.03;5004017;28;20599;-75
2023/01/20 00:56:27;;;;;;;2.95;1.38;;;;;;;7.66;88.25;102442.81;5006733;28;20547;-73
2023/01/20 00:58:55;;;;;;;3.55;1.92;;;;;;;7.64;87.22;102441.81;5007266;28;20049;-77
2023/01/20 01:01:24;;;;;;;5.35;1.63;;;;;;;7.61;88.17;102441.59;5004915;28;20049;-75
2023/01/20 01:03:55;;;;;;;6.00;2.00;;;;;;;7.58;88.24;102451.69;5008638;28;20503;-76
2023/01/20 01:06:24;;;;;;;6.47;3.15;;;;;;;7.57;87.75;102447.31;5007624;28;20054;-72
2023/01/20 01:08:53;;;;;;;10.80;3.15;;;;;;;7.57;88.13;102455.06;5010683;28;20049;-73
2023/01/20 01:11:21;;;;;;;8.70;3.70;;;;;;;7.55;87.91;102451.47;5008367;28;20050;-73
2023/01/20 01:13:50;;;;;;;5.55;3.00;;;;;;;7.53;89.26;102442.75;5009395;28;20045;-72
2023/01/20 01:16:19;;;;;;;3.72;2.08;;;;;;;7.49;88.53;102448.47;5008077;28;20050;-72
2023/01/20 01:18:47;;;;;;;3.65;1.90;;;;;;;7.46;87.69;102448.25;5008717;28;20503;-74
2023/01/20 01:21:18;;;;;;;3.90;2.33;;;;;;;7.41;87.74;102450.53;5004934;28;20179;-73
2023/01/20 01:23:47;;;;;;;3.15;1.60;;;;;;;7.38;88.11;102452.00;5009545;28;20501;-73
2023/01/20 01:26:16;;;;;;;6.00;1.98;;;;;;;7.32;88.31;102458.50;5008393;28;20053;-79
2023/01/20 01:28:44;;;;;;;5.95;1.98;;;;;;;7.28;88.50;102453.94;5004559;28;20050;-75
2023/01/20 01:31:13;;;;;;;6.70;2.20;;;;;;;7.24;87.98;102458.75;5014312;28;20053;-77
2023/01/20 01:33:41;;;;;;;3.40;2.22;;;;;;;7.18;89.23;102459.22;5010797;28;20495;-74
2023/01/20 01:36:14;;;;;;;3.38;2.30;;;;;;;7.12;89.49;102461.34;5005744;28;20065;-78
2023/01/20 01:38:44;;;;;;;4.88;2.47;;;;;;;7.08;90.43;102462.84;5004439;28;20046;-72
2023/01/20 01:41:14;;;;;;;4.88;2.60;;;;;;;7.04;90.14;102460.81;5002729;28;20455;-74
2023/01/20 01:44:01;;;;;;;4.80;2.65;;;;;;;7.01;90.15;102459.69;5015398;28;20496;-74
2023/01/20 01:46:38;;;;;;;5.93;2.72;;;;;;;6.97;90.48;102457.72;5008715;28;20070;-74
2023/01/20 01:49:11;;;;;;;3.88;2.15;;;;;;;6.89;92.45;102450.34;5011492;28;20655;-73
2023/01/20 01:51:43;;;;;;;7.22;3.22;;;;;;;6.83;92.64;102465.34;4999750;28;20442;-72
2023/01/20 01:54:16;;;;;;;6.13;3.53;;;;;;;6.75;91.94;102455.25;5004545;28;20058;-73
2023/01/20 01:56:46;;;;;;;6.88;3.17;;;;;;;6.71;91.31;102461.84;4993366;28;20049;-74
2023/01/20 01:59:17;;;;;;;6.63;2.85;;;;;;;6.67;91.80;102467.59;4987484;28;20050;-75
2023/01/20 02:01:50;;;;;;;8.75;3.42;;;;;;;6.62;92.48;102469.81;4991502;28;20042;-75
2023/01/20 02:04:19;;;;;;;;;;;;;;;6.57;92.38;102466.00;4980212;28;20043;-75
2023/01/20 02:06:51;;;;;;;7.88;3.70;;;;;;;6.53;93.55;102463.09;4985382;28;19929;-76
2023/01/20 02:09:22;;;;;;;9.02;3.55;;;;;;;6.46;93.35;102462.66;4990182;28;20105;-76
2023/01/20 02:11:54;;;;;;;5.07;2.20;;;;;;;6.40;94.05;102461.31;4993455;28;20046;-78
2023/01/20 02:14:26;;;;;;;5.85;3.38;;;;;;;6.32;94.64;102460.72;4987667;28;20054;-74
2023/01/20 02:17:03;;;;;;;5.25;2.75;;;;;;;6.21;95.61;102471.91;4989487;28;20054;-76
2023/01/20 02:20:06;;;;;;;7.38;2.65;;;;;;;6.13;95.64;102470.44;4989918;28;20057;-77
2023/01/20 02:22:38;;;;;;;;;;;;;;;6.07;96.56;102482.06;4985793;28;20051;-75
2023/01/20 02:25:43;;;;;;;7.25;3.45;;;;;;;6.02;96.10;102473.06;4990894;28;19921;-74
2023/01/20 02:28:41;;;;;;;6.80;3.72;;;;;;;6.00;95.88;102476.31;4991583;28;20054;-74
2023/01/20 02:31:37;;;;;;;8.68;3.65;;;;;;;5.94;96.18;102479.31;4995233;28;20045;-75
2023/01/20 02:34:16;;;;;;;8.95;4.22;;;;;;;5.91;96.37;102483.28;4989197;28;20109;-74
2023/01/20 02:36:49;;;;;;;7.65;3.85;;;;;;;5.87;97.44;102482.19;4993393;28;20050;-74
2023/01/20 02:39:23;;;;;;;4.90;3.30;;;;;;;5.83;97.73;102487.84;4990518;28;20085;-74
2023/01/20 02:41:59;;;;;;;8.15;4.43;;;;;;;5.80;97.82;102490.19;4978999;28;20053;-75
2023/01/20 02:44:35;;;;;;;7.78;3.83;;;;;;;5.74;98.16;102489.72;4987522;28;20054;-78
2023/01/20 02:47:13;;;;;;;11.35;3.75;;;;;;;5.70;98.48;102482.56;4988733;28;20433;-75
2023/01/20 02:49:52;;;;;;;7.88;3.75;;;;;;;5.65;97.91;102495.94;4984615;28;20672;-75
2023/01/20 02:52:25;;;;;;;8.32;3.33;;;;;;;5.61;97.96;102496.50;4992146;28;20065;-73
2023/01/20 02:54:56;;;;;;;9.85;3.53;;;;;;;5.57;97.97;102497.03;5015561;28;20512;-74
2023/01/20 02:57:30;;;;;;;8.20;4.15;;;;;;;5.54;99.04;102504.47;5005901;28;20559;-76
2023/01/20 03:00:04;;;;;;;15.55;6.15;;;;;;;5.49;100.00;102495.53;5003803;28;20049;-76
2023/01/20 03:02:37;;;;;;;15.23;6.38;;;;;;;5.46;100.00;102501.31;5008965;28;20051;-75
2023/01/20 03:05:11;;;;;;;14.60;5.70;;;;;;;5.43;99.74;102507.91;5011043;28;20049;-76
2023/01/20 03:07:42;;;;;;;10.40;5.00;;;;;;;5.38;99.76;102506.63;5010736;28;20050;-76
2023/01/20 03:10:15;;;;;;;14.15;4.80;;;;;;;5.29;99.89;102509.38;5008437;28;20046;-76
2023/01/20 03:12:50;;;;;;;8.73;3.85;;;;;;;5.22;100.00;102512.22;5010330;28;20068;-77
2023/01/20 03:15:25;;;;;;;9.52;4.35;;;;;;;5.18;100.00;102508.53;5009488;28;20049;-77
2023/01/20 03:17:54;;;;;;;9.60;4.03;;;;;;;5.14;100.00;102505.59;5009284;28;20110;-78
2023/01/20 03:20:24;;;;;;;11.82;4.75;;;;;;;5.08;100.00;102505.97;5010369;28;20053;-79
2023/01/20 03:22:53;;;;;;;8.07;4.05;;;;;;;5.05;100.00;102505.75;5010471;28;20174;-80
2023/01/20 03:25:22;;;;;;;12.48;4.95;;;;;;;4.99;100.00;102505.25;5010332;28;20050;-79
2023/01/20 03:27:50;;;;;;;12.30;4.20;;;;;;;4.94;100.00;102504.88;5002186;28;20492;-78
2023/01/20 03:30:20;;;;;;;9.23;3.90;;;;;;;4.92;100.00;102501.28;5007103;28;20042;-79
2023/01/20 03:32:50;;;;;;;7.95;3.80;;;;;;;4.90;100.00;102505.44;5009085;28;20121;-79
2023/01/20 03:35:20;;;;;;;8.05;3.42;;;;;;;4.84;100.00;102502.38;5004007;28;20061;-81
2023/01/20 03:37:50;;;;;;;8.48;3.92;;;;;;;4.81;100.00;102510.72;5004018;28;20042;-80
2023/01/20 03:40:19;;;;;;;7.72;3.63;;;;;;;4.79;100.00;102507.13;5001343;28;20042;-79
2023/01/20 03:42:57;;;;;;;7.10;3.42;;;;;;;4.77;100.00;102508.66;5007525;28;20141;-79
2023/01/20 03:45:36;;;;;;;10.60;3.50;;;;;;;4.75;100.00;102502.50;5003155;28;20050;-79
2023/01/20 03:48:14;;;;;;;6.88;3.35;;;;;;;4.72;100.00;102499.72;5004670;28;20042;-81
2023/01/20 03:50:48;;;;;;;7.47;3.38;;;;;;;4.70;100.00;102493.56;5015364;28;20049;-81
2023/01/20 03:53:28;;;;;;;6.25;3.13;;;;;;;4.59;100.00;102486.66;5010476;28;20694;-78
2023/01/20 03:56:03;;;;;;;6.97;3.13;;;;;;;4.60;100.00;102498.69;5004416;28;20050;-80
2023/01/20 03:58:35;;;;;;;7.75;3.70;;;;;;;4.56;100.00;102499.25;5008625;28;20049;-80
2023/01/20 04:01:09;;;;;;;5.77;3.00;;;;;;;4.52;100.00;102502.31;4996883;28;20048;-81
2023/01/20 04:03:43;;;;;;;8.45;3.95;;;;;;;4.50;100.00;102503.84;5007224;28;20053;-82
2023/01/20 04:06:15;;;;;;;8.13;3.65;;;;;;;4.46;100.00;102502.69;5007750;28;20046;-81
2023/01/20 04:08:52;;;;;;;9.00;3.83;;;;;;;4.46;100.00;102509.50;5005121;28;20060;-80
2023/01/20 04:11:20;;;;;;;8.85;4.57;;;;;;;4.41;100.00;102519.38;5008475;28;20135;-82
2023/01/20 04:13:50;;;;;;;7.75;4.05;;;;;;;4.38;100.00;102522.59;5003341;28;20049;-79
2023/01/20 04:16:20;;;;;;;9.93;4.18;;;;;;;4.36;100.00;102521.56;5008851;28;20071;-78
2023/01/20 04:18:50;;;;;;;9.70;4.05;;;;;;;4.35;100.00;102524.91;5009095;28;20042;-85
2023/01/20 04:21:25;;;;;;;10.52;4.20;;;;;;;4.32;100.00;102514.38;5007329;28;20515;-78
2023/01/20 04:24:01;;;;;;;8.65;4.43;;;;;;;4.30;100.00;102521.03;5003732;28;20679;-77
2023/01/20 04:26:30;;;;;;;7.13;3.55;;;;;;;4.28;100.00;102542.19;5007904;28;20056;-78
2023/01/20 04:28:58;;;;;;;11.55;5.22;;;;;;;4.26;100.00;102538.59;5009057;28;20045;-76
2023/01/20 04:31:27;;;;;;;15.32;6.57;;;;;;;4.25;100.00;102539.38;5002903;28;20112;-78
2023/01/20 04:33:55;;;;;;;15.13;5.70;;;;;;;4.20;100.00;102537.31;5008087;28;20152;-77
2023/01/20 04:36:24;;;;;;;12.85;4.90;;;;;;;4.18;100.00;102540.53;4999769;28;20563;-78
2023/01/20 04:38:52;;;;;;;13.90;5.72;;;;;;;4.14;100.00;102541.91;5008773;28;20543;-79
2023/01/20 04:41:23;;;;;;;13.77;5.50;;;;;;;4.12;100.00;102540.00;5008176;28;20054;-77
2023/01/20 04:43:51;;;;;;;7.95;4.47;;;;;;;4.09;100.00;102544.88;5008169;28;20519;-80
2023/01/20 04:46:20;;;;;;;12.00;4.80;;;;;;;4.06;100.00;102544.63;5006956;28;20065;-77
2023/01/20 04:48:48;;;;;;;7.60;4.32;;;;;;;4.02;100.00;102542.56;5003261;28;20046;-76
2023/01/20 04:51:17;;;;;;;18.35;4.55;;;;;;;3.99;100.00;102548.34;5007012;28;20050;-80
2023/01/20 04:53:45;;;;;;;13.52;4.80;;;;;;;3.93;100.00;102548.69;4999729;28;20050;-80
2023/01/20 04:56:15;;;;;;;10.05;4.10;;;;;;;3.91;100.00;102555.34;5001134;28;20052;-80
2023/01/20 04:58:45;;;;;;;15.50;5.57;;;;;;;3.87;100.00;102549.84;5007665;28;20097;-77
2023/01/20 05:01:14;;;;;;;12.88;6.03;;;;;;;3.84;100.00;102553.03;5008047;28;20552;-76
2023/01/20 05:03:42;;;;;;;15.75;6.97;;;;;;;3.81;100.00;102557.00;5004024;28;20503;-77
2023/01/20 05:06:11;;;;;;;11.85;4.95;;;;;;;3.76;100.00;102554.06;4998333;28;20042;-78
2023/01/20 05:08:40;;;;;;;11.48;4.50;;;;;;;3.74;100.00;102555.59;5009553;28;20053;-80
2023/01/20 05:11:09;;;;;;;13.23;5.03;;;;;;;3.75;100.00;102552.25;5005501;28;20136;-78
2023/01/20 05:13:38;;;;;;;13.02;4.13;;;;;;;3.72;100.00;102557.13;5012009;28;20053;-77
2023/01/20 05:16:10;;;;;;;14.13;6.25;;;;;;;3.68;100.00;102555.94;5002645;28;20046;-77
2023/01/20 05:18:39;;;;;;;14.48;5.57;;;;;;;3.66;100.00;102567.72;5003145;28;20072;-76
2023/01/20 05:21:08;;;;;;;10.10;4.13;;;;;;;3.64;100.00;102576.03;5003359;28;20128;-77
2023/01/20 05:23:37;;;;;;;11.55;4.40;;;;;;;3.60;100.00;102566.28;5004627;28;20515;-81
2023/01/20 05:26:05;;;;;;;17.45;4.80;;;;;;;3.59;100.00;102580.75;5004229;28;20058;-78
2023/01/20 05:28:34;;;;;;;8.32;4.50;;;;;;;3.55;100.00;102579.59;5006796;28;20049;-76
2023/01/20 05:31:02;;;;;;;12.98;4.88;;;;;;;3.55;100.00;102578.69;5005030;28;20046;-78
2023/01/20 05:33:32;;;;;;;7.95;3.83;;;;;;;3.49;100.00;102576.50;5002870;28;20349;-77
2023/01/20 05:36:04;;;;;;;14.10;4.05;;;;;;;3.48;100.00;102581.47;5005103;28;20057;-77
2023/01/20 05:38:33;;;;;;;11.00;5.03;;;;;;;3.46;100.00;102580.44;5008376;28;20049;-79
2023/01/20 05:41:02;;;;;;;9.00;3.55;;;;;;;3.42;100.00;102580.97;4996604;28;20663;-78
2023/01/20 05:43:37;;;;;;;9.70;3.55;;;;;;;3.39;100.00;102580.66;5005134;28;20509;-77
2023/01/20 05:46:06;;;;;;;8.43;4.25;;;;;;;3.34;100.00;102575.16;5010377;28;20049;-77
2023/01/20 05:48:37;;;;;;;13.15;4.30;;;;;;;3.32;100.00;102576.66;5002017;28;20049;-78
2023/01/20 05:51:06;;;;;;;7.35;3.53;;;;;;;3.28;100.00;102588.31;5003507;28;20403;-77
2023/01/20 05:53:35;;;;;;;10.60;3.92;;;;;;;3.26;100.00;102584.72;5007955;28;20120;-77
2023/01/20 05:56:05;;;;;;;10.18;3.65;;;;;;;3.24;100.00;102586.25;5003839;28;20093;-79
2023/01/20 05:58:34;;;;;;;9.50;3.50;;;;;;;3.22;100.00;102590.31;5003421;28;20053;-78
2023/01/20 06:01:07;;;;;;;7.88;3.83;;;;;;;3.17;100.00;102593.25;5006378;28;20917;-79
2023/01/20 06:03:38;;;;;;;6.60;3.00;;;;;;;3.17;100.00;102595.81;5001814;28;20053;-77
2023/01/20 06:06:08;;;;;;;7.03;3.95;;;;;;;3.14;100.00;102597.31;4999110;28;20413;-78
2023/01/20 06:08:37;;;;;;;8.25;4.13;;;;;;;3.12;100.00;102603.97;5005309;28;20050;-78
2023/01/20 06:11:06;;;;;;;10.82;3.80;;;;;;;3.10;100.00;102618.28;5008319;28;20068;-77
2023/01/20 06:13:35;;;;;;;6.00;3.40;;;;;;;3.07;100.00;102611.97;5007677;28;20045;-77
2023/01/20 06:16:04;;;;;;;8.23;3.85;;;;;;;3.04;100.00;102610.03;5003492;28;20160;-76
2023/01/20 06:18:33;;;;;;;9.02;3.63;;;;;;;3.03;100.00;102615.94;5009713;28;20058;-76
2023/01/20 06:21:03;;;;;;;11.82;4.18;;;;;;;3.02;100.00;102624.34;5011095;28;20060;-77
2023/01/20 06:23:32;;;;;;;9.35;4.07;;;;;;;3.01;100.00;102620.00;5010379;28;20385;-81
2023/01/20 06:26:02;;;;;;;8.52;3.72;;;;;;;2.97;100.00;102630.72;5005015;28;20526;-77
2023/01/20 06:28:31;;;;;;;7.53;4.05;;;;;;;2.94;100.00;102643.22;5011617;28;20495;-77
2023/01/20 06:31:04;;;;;;;6.55;2.47;;;;;;;2.92;100.00;102643.06;5007175;28;20448;-74
2023/01/20 06:33:34;;;;;;;23.13;10.02;;;;;;;2.90;100.00;102647.16;5010250;28;20053;-74
2023/01/20 06:36:05;;;;;;;10.02;3.67;;;;;;;2.90;100.00;102648.81;5009368;28;20054;-75
2023/01/20 06:38:35;;;;;;;7.25;2.70;;;;;;;2.88;100.00;102642.66;5010747;28;20062;-73
2023/01/20 06:41:05;;;;;;;6.88;2.78;;;;;;;2.89;100.00;102649.59;5000384;28;20058;-75
2023/01/20 06:43:38;;;;;;;5.85;2.53;;;;;;;2.87;100.00;102643.44;5003787;28;20054;-74
2023/01/20 06:46:11;;;;;;;7.95;3.05;;;;;;;2.86;100.00;102645.09;4999669;28;20574;-76
2023/01/20 06:48:40;;;;;;;8.60;2.95;;;;;;;2.86;100.00;102644.19;4998573;28;20124;-78
2023/01/20 06:51:12;;;;;;;7.10;3.25;;;;;;;2.84;100.00;102650.81;4999795;28;20050;-80
2023/01/20 06:53:41;;;;;;;7.32;2.58;;;;;;;2.83;100.00;102651.59;5011586;28;20058;-79
2023/01/20 06:56:12;;;;;;;5.75;2.60;;;;;;;2.75;100.00;102649.97;5000023;28;20169;-79
2023/01/20 06:58:40;;;;;;;7.32;3.15;;;;;;;2.73;100.00;102658.41;5006762;28;20042;-76
2023/01/20 07:01:11;;;;;;;7.07;3.50;;;;;;;2.75;100.00;102663.69;5004407;28;20049;-76
2023/01/20 07:03:42;;;;;;;7.70;2.58;;;;;;;2.73;100.00;102666.09;5009533;28;20129;-76
2023/01/20 07:06:18;;;;;;;11.05;3.38;;;;;;;2.73;100.00;102665.19;5005553;28;20431;-76
2023/01/20 07:08:47;;;;;;;7.20;2.90;;;;;;;2.74;100.00;102661.84;5006979;28;20065;-74
2023/01/20 07:11:15;;;;;;;7.63;2.72;;;;;;;2.74;100.00;102664.41;5008989;28;20400;-75
2023/01/20 07:13:44;;;;;;;8.95;3.35;;;;;;;2.75;100.00;102665.31;5009709;28;20053;-73
2023/01/20 07:16:13;;;;;;;8.55;2.67;;;;;;;2.75;100.00;102667.88;5007248;28;20077;-74
2023/01/20 07:18:42;;;;;;;7.65;2.95;;;;;;;2.76;100.00;102664.56;5007722;28;20050;-74
2023/01/20 07:21:12;;;;;;;6.35;2.55;;;;;;;2.77;100.00;102667.25;5010275;28;20389;-74
2023/01/20 07:23:43;;;;;;;4.60;2.42;;;;;;;2.78;100.00;102663.06;5004745;28;20129;-73
2023/01/20 07:26:13;;;;;;;8.18;3.42;;;;;;;2.78;100.00;102657.94;5008481;28;20172;-73
2023/01/20 07:28:42;;;;;;;7.22;2.97;;;;;;;2.79;100.00;102667.38;4999513;28;20042;-73
2023/01/20 07:31:12;;;;;;;12.45;3.13;;;;;;;2.81;100.00;102664.22;5012963;28;20050;-73
2023/01/20 07:33:41;;;;;;;5.45;2.75;;;;;;;2.84;100.00;102666.16;5009123;28;20218;-73
2023/01/20 07:36:11;;;;;;;6.32;3.03;;;;;;;2.79;100.00;102650.38;5005620;28;20046;-72
2023/01/20 07:38:41;;;;;;;5.53;2.67;;;;;;;2.89;100.00;102662.38;5010777;28;20057;-73
2023/01/20 07:41:14;;;;;;;6.82;3.10;;;;;;;2.89;100.00;102667.50;5010826;28;20104;-73
2023/01/20 07:43:43;;;;;;;6.10;2.97;;;;;;;2.91;100.00;102668.53;5010999;28;20507;-73
2023/01/20 07:46:12;;;;;;;7.75;2.85;;;;;;;2.92;100.00;102671.22;4989708;28;20460;-73
2023/01/20 07:48:41;;;;;;;9.70;3.83;;;;;;;2.93;100.00;102666.97;4998015;28;20053;-73
2023/01/20 07:51:13;;;;;;;10.02;3.60;;;;;;;2.95;100.00;102673.13;4998428;28;20058;-73
2023/01/20 07:54:05;;;;;;;8.43;2.88;;;;;;;2.97;100.00;102663.94;5012401;28;20050;-73
2023/01/20 07:56:34;;;;;;;9.38;3.67;;;;;;;3.01;100.00;102673.72;4991922;28;20492;-73
2023/01/20 07:59:02;;;;;;;7.45;3.28;;;;;;;3.01;100.00;102662.59;5007568;28;20046;-72
2023/01/20 08:01:32;;;;;;;9.60;4.18;;;;;;;3.00;100.00;102661.69;5006925;28;20677;-71
2023/01/20 08:04:01;;;;;;;8.18;3.92;;;;;;;3.04;100.00;102657.75;5008741;28;20045;-73
2023/01/20 08:06:30;;;;;;;12.60;3.65;;;;;;;3.04;100.00;102658.63;5008591;28;20066;-73
2023/01/20 08:09:03;;;;;;;7.10;3.58;;;;;;;3.06;100.00;102654.56;5005883;28;20507;-73
2023/01/20 08:11:32;;;;;;;;;;;;;;;3.07;100.00;102646.13;5002648;28;20076;-73
2023/01/20 08:14:01;;;;;;;12.80;4.07;;;;;;;3.10;100.00;102640.41;5004647;28;20443;-73
2023/01/20 08:16:29;;;;;;;12.93;4.35;;;;;;;3.11;100.00;102644.72;5006681;28;20061;-73
2023/01/20 08:18:58;;;;;;;9.00;4.07;;;;;;;3.12;100.00;102637.22;5004978;28;20057;-73
2023/01/20 08:21:28;;;;;;;9.52;3.45;;;;;;;3.13;100.00;102646.66;5007732;28;20053;-72
2023/01/20 08:23:57;;;;;;;12.48;4.45;;;;;;;3.13;100.00;102641.56;5006234;28;20041;-73
2023/01/20 08:26:28;;;;;;;8.43;3.80;;;;;;;3.13;100.00;102646.66;4993833;28;20684;-73
2023/01/20 08:29:01;;;;;;;15.18;5.20;;;;;;;3.15;100.00;102641.69;5005412;28;20049;-73
2023/01/20 08:31:30;;;;;;;13.80;5.00;;;;;;;3.16;100.00;102648.59;5006225;28;20053;-73
2023/01/20 08:33:59;;;;;;;16.08;5.93;;;;;;;3.19;100.00;102640.31;5007560;28;20058;-73
2023/01/20 08:36:31;;;;;;;12.93;4.85;;;;;;;3.20;100.00;102634.44;5000766;28;20137;-73
2023/01/20 08:39:02;;;;;;;12.40;4.77;;;;;;;3.22;100.00;102635.47;5005558;28;20056;-73
2023/01/20 08:41:35;;;;;;;11.88;4.65;;;;;;;3.23;100.00;102625.38;5007273;28;20088;-73
2023/01/20 08:44:06;;;;;;;12.15;4.80;;;;;;;3.25;100.00;102622.94;5001103;28;20054;-73
2023/01/20 08:46:36;;;;;;;15.25;4.68;;;;;;;3.24;100.00;102621.16;4998664;28;20082;-73
2023/01/20 08:49:08;;;;;;;10.85;3.53;;;;;;;3.23;100.00;102611.66;5006639;28;20499;-73
2023/01/20 08:51:37;;;;;;;9.48;4.10;;;;;;;3.24;100.00;102610.94;4993968;28;20567;-73
2023/01/20 08:54:06;;;;;;;7.80;3.78;;;;;;;3.23;100.00;102609.13;4997913;28;20128;-73
2023/01/20 08:56:36;;;;;;;8.68;3.72;;;;;;;3.23;100.00;102611.66;5004510;28;20053;-73
2023/01/20 08:59:05;;;;;;;8.82;3.72;;;;;;;3.23;100.00;102610.03;5007522;28;20584;-73
2023/01/20 09:01:36;;;;;;;7.72;3.95;;;;;;;3.18;100.00;102601.03;5008426;28;20104;-73
2023/01/20 09:04:05;;;;;;;7.88;3.90;;;;;;;3.25;100.00;102617.81;5006736;28;20132;-72
2023/01/20 09:06:40;;;;;;;7.07;3.28;;;;;;;3.25;100.00;102598.28;5007598;28;20188;-73
2023/01/20 09:09:08;;;;;;;10.25;4.40;;;;;;;3.25;100.00;102592.25;5006442;28;20049;-73
2023/01/20 09:11:41;;;;;;;8.02;3.53;;;;;;;3.26;100.00;102584.72;5007114;28;20393;-73
2023/01/20 09:14:10;;;;;;;8.40;3.38;;;;;;;3.28;100.00;102584.88;5007074;28;20128;-72
2023/01/20 09:16:39;;;;;;;7.85;3.75;;;;;;;3.27;100.00;102581.38;5001502;28;20053;-73
2023/01/20 09:19:07;;;;;;;8.20;4.05;;;;;;;3.29;100.00;102589.19;5006815;28;20049;-73
2023/01/20 09:21:36;;;;;;;8.15;4.05;;;;;;;3.30;100.00;102575.66;5006880;28;20054;-72
2023/01/20 09:24:05;;;;;;;11.93;3.83;;;;;;;3.33;100.00;102586.16;5003502;28;20412;-73
2023/01/20 09:26:38;;;;;;;10.60;4.57;;;;;;;3.35;100.00;102589.75;5005459;28;20050;-73
2023/01/20 09:29:11;;;;;;;9.85;4.03;;;;;;;3.37;100.00;102588.22;4996641;28;20528;-73
2023/01/20 09:31:42;;;;;;;8.02;4.38;;;;;;;3.37;100.00;102593.34;5008307;28;20080;-73
2023/01/20 09:34:11;;;;;;;14.05;3.90;;;;;;;3.37;100.00;102593.34;5006057;28;20062;-73
2023/01/20 09:36:40;;;;;;;13.05;4.20;;;;;;;3.38;100.00;102590.00;5000851;28;20684;-73
2023/01/20 09:44:50;;;;;;;18.63;4.30;;;;;;;3.38;100.00;102617.25;5006950;28;20053;-73
2023/01/20 09:47:29;;;;;;;16.15;3.88;;;;;;;3.35;100.00;102610.22;5010740;28;20060;-73
2023/01/20 09:53:14;;;;;;;8.50;3.92;;;;;;;3.36;100.00;102619.69;5008339;28;20088;-73
2023/01/20 09:55:47;;;;;;;16.23;5.13;;;;;;;3.35;100.00;102626.47;5010797;28;20060;-73
2023/01/20 09:58:25;;;;;;;10.32;3.97;;;;;;;3.39;100.00;102626.72;5002953;28;20555;-74
2023/01/20 10:01:04;;;;;;;10.90;3.78;;;;;;;3.42;100.00;102635.59;5007927;28;20049;-74
2023/01/20 10:03:40;;;;;;;13.07;3.58;;;;;;;3.45;100.00;102633.28;5009284;28;20108;-73
2023/01/20 10:06:13;;;;;;;13.90;2.78;;;;;;;3.47;100.00;102636.88;5010467;28;20918;-73
2023/01/20 10:08:49;;;;;;;9.45;2.25;;;;;;;3.47;100.00;102642.00;5001342;28;20068;-73
2023/01/20 10:11:21;;;;;;;10.48;3.35;;;;;;;3.43;100.00;102637.38;5009027;28;20053;-74
2023/01/20 10:13:56;;;;;;;15.23;2.95;;;;;;;3.51;100.00;102644.06;5008270;28;20049;-76
2023/01/20 10:16:32;;;;;;;9.90;3.33;;;;;;;3.54;100.00;102664.81;5009557;28;20057;-74
2023/01/20 10:19:06;;;;;;;12.85;2.63;;;;;;;3.53;100.00;102660.47;5005389;28;20057;-75
2023/01/20 10:21:41;;;;;;;4.07;2.13;;;;;;;3.51;100.00;102669.66;5006037;28;20054;-73
2023/01/20 10:24:13;;;;;;;13.20;2.78;;;;;;;3.50;100.00;102672.97;4999546;28;20042;-73
2023/01/20 10:26:47;;;;;;;;;;;;;;;3.49;100.00;102681.44;5000371;28;20057;-73
2023/01/20 10:29:23;;;;;;;10.13;2.53;;;;;;;3.50;100.00;102683.22;5001041;28;19929;-73
2023/01/20 10:32:00;;;;;;;4.88;2.47;;;;;;;3.49;100.00;102686.53;5007410;28;20536;-73
2023/01/20 10:34:34;;;;;;;7.15;2.25;;;;;;;3.48;100.00;102683.84;4997111;28;20416;-73
2023/01/20 10:37:07;;;;;;;10.43;2.88;;;;;;;3.45;100.00;102681.03;5008109;28;20056;-74
2023/01/20 10:39:47;;;;;;;3.85;2.05;;;;;;;3.44;100.00;102680.13;5002147;28;20046;-73
2023/01/20 10:42:17;;;;;;;4.55;2.17;;;;;;;3.44;100.00;102680.13;5006125;28;20448;-73
2023/01/20 10:44:47;;;;;;;3.55;2.08;;;;;;;3.43;100.00;102680.88;5009978;28;21010;-73
2023/01/20 10:47:26;;;;;;;4.90;2.30;;;;;;;3.38;100.00;102679.56;5011506;28;20050;-74
2023/01/20 10:50:16;;;;;;;5.90;2.70;;;;;;;3.39;100.00;102683.94;5000553;28;20042;-73
2023/01/20 10:53:19;;;;;;;5.03;2.58;;;;;;;3.38;100.00;102689.81;5006169;28;20412;-73
2023/01/20 10:56:02;;;;;;;9.63;2.83;;;;;;;3.36;100.00;102688.75;4995636;28;20157;-74
2023/01/20 10:58:36;;;;;;;8.05;2.03;;;;;;;3.33;100.00;102684.28;5000773;28;20602;-73
2023/01/20 11:01:08;;;;;;;7.70;2.70;;;;;;;3.31;100.00;102685.78;5010917;28;20400;-73
2023/01/20 11:03:42;;;;;;;10.10;2.83;;;;;;;3.30;100.00;102678.00;5006798;28;20113;-73
2023/01/20 11:06:19;;;;;;;6.45;2.60;;;;;;;3.30;100.00;102683.13;4994054;28;20443;-73
2023/01/20 11:08:48;;;;;;;5.90;2.85;;;;;;;3.29;100.00;102683.88;5010712;28;20290;-73
2023/01/20 11:11:21;;;;;;;4.07;2.17;;;;;;;3.29;100.00;102676.19;5011131;28;20049;-73
2023/01/20 11:13:51;;;;;;;5.70;2.42;;;;;;;3.28;100.00;102671.84;5010987;28;20061;-73
2023/01/20 11:16:23;;;;;;;5.35;2.10;;;;;;;3.29;100.00;102671.97;5006806;28;20073;-74
2023/01/20 11:19:01;;;;;;;7.60;3.20;;;;;;;3.29;100.00;102668.50;5002413;28;20112;-73
2023/01/20 11:21:32;;;;;;;7.65;2.15;;;;;;;3.28;100.00;102670.19;4997843;28;20452;-73
2023/01/20 11:24:01;;;;;;;8.52;2.13;;;;;;;3.27;100.00;102664.91;4996870;28;20133;-74
2023/01/20 11:26:33;;;;;;;6.22;2.58;;;;;;;3.27;100.00;102662.34;5008391;28;20057;-73
2023/01/20 11:29:03;;;;;;;6.20;2.65;;;;;;;3.28;100.00;102659.94;5008599;28;20061;-73
2023/01/20 11:31:38;;;;;;;4.88;2.33;;;;;;;3.28;100.00;102671.84;5010222;28;20447;-73
2023/01/20 11:34:23;;;;;;;9.57;2.70;;;;;;;3.28;100.00;102665.06;5008293;28;20512;-74
2023/01/20 11:36:52;;;;;;;10.38;2.53;;;;;;;3.27;100.00;102664.91;4998834;28;20054;-74
2023/01/20 11:39:29;;;;;;;4.60;2.58;;;;;;;3.28;100.00;102674.41;5009256;28;20046;-74
2023/01/20 11:42:16;;;;;;;7.45;2.25;;;;;;;3.30;100.00;102672.88;5001560;28;20053;-73
2023/01/20 11:44:46;;;;;;;10.00;2.70;;;;;;;3.30;100.00;102663.53;5008906;28;20048;-74
2023/01/20 11:47:25;;;;;;;14.93;2.70;;;;;;;3.32;100.00;102668.78;4997771;28;20543;-74
2023/01/20 11:50:27;;;;;;;7.07;2.40;;;;;;;3.33;100.00;102657.78;5008242;28;20065;-73
2023/01/20 11:53:14;;;;;;;12.00;2.55;;;;;;;3.34;100.00;102659.56;5008786;28;20049;-74
2023/01/20 11:55:49;;;;;;;9.50;2.80;;;;;;;3.35;100.00;102652.06;4999606;28;20077;-74
2023/01/20 11:58:20;;;;;;;8.20;2.38;;;;;;;3.35;100.00;102648.59;5005896;28;20413;-73